sensor_id;sensor_type;location;lat;lon;timestamp;temperature;humidity
22917;DHT22;11624;53.250;7.456;2022-08-14T00:02:21;28.39;42.19
22917;DHT22;11624;53.250;7.456;2022-08-14T00:04:53;28.41;42.23
22917;DHT22;11624;53.250;7.456;2022-08-14T00:07:21;28.43;42.17
22917;DHT22;11624;53.250;7.456;2022-08-14T00:09:51;28.45;42.26
22917;DHT22;11624;53.250;7.456;2022-08-14T00:12:47;28.47;42.30
22917;DHT22;11624;53.250;7.456;2022-08-14T00:15:25;28.48;42.34
22917;DHT22;11624;53.250;7.456;2022-08-14T00:18:04;28.52;42.36
22917;DHT22;11624;53.250;7.456;2022-08-14T00:20:35;28.55;42.34
22917;DHT22;11624;53.250;7.456;2022-08-14T00:23:10;28.57;42.28
22917;DHT22;11624;53.250;7.456;2022-08-14T00:25:47;28.59;42.35
22917;DHT22;11624;53.250;7.456;2022-08-14T00:28:25;28.59;42.41
22917;DHT22;11624;53.250;7.456;2022-08-14T00:30:58;28.60;42.50
22917;DHT22;11624;53.250;7.456;2022-08-14T00:33:28;28.61;42.47
22917;DHT22;11624;53.250;7.456;2022-08-14T00:36:16;28.61;42.47
22917;DHT22;11624;53.250;7.456;2022-08-14T00:39:05;28.61;42.25
22917;DHT22;11624;53.250;7.456;2022-08-14T00:41:36;28.60;42.36
22917;DHT22;11624;53.250;7.456;2022-08-14T00:44:08;28.57;42.23
22917;DHT22;11624;53.250;7.456;2022-08-14T00:46:37;28.53;42.36
22917;DHT22;11624;53.250;7.456;2022-08-14T00:49:07;28.48;42.41
22917;DHT22;11624;53.250;7.456;2022-08-14T00:51:41;28.44;42.61
22917;DHT22;11624;53.250;7.456;2022-08-14T00:54:10;28.40;42.74
22917;DHT22;11624;53.250;7.456;2022-08-14T00:56:51;28.39;42.86
22917;DHT22;11624;53.250;7.456;2022-08-14T00:59:23;28.38;42.93
22917;DHT22;11624;53.250;7.456;2022-08-14T01:01:54;28.35;42.81
22917;DHT22;11624;53.250;7.456;2022-08-14T01:04:25;28.29;43.07
22917;DHT22;11624;53.250;7.456;2022-08-14T01:07:14;28.25;43.29
22917;DHT22;11624;53.250;7.456;2022-08-14T01:09:48;28.21;43.32
22917;DHT22;11624;53.250;7.456;2022-08-14T01:12:19;28.20;43.30
22917;DHT22;11624;53.250;7.456;2022-08-14T01:14:54;28.18;43.35
22917;DHT22;11624;53.250;7.456;2022-08-14T01:17:25;28.15;43.51
22917;DHT22;11624;53.250;7.456;2022-08-14T01:20:16;28.14;43.40
22917;DHT22;11624;53.250;7.456;2022-08-14T01:23:10;28.11;43.53
22917;DHT22;11624;53.250;7.456;2022-08-14T01:25:45;28.09;43.59
22917;DHT22;11624;53.250;7.456;2022-08-14T01:28:14;28.06;43.70
22917;DHT22;11624;53.250;7.456;2022-08-14T01:31:05;28.04;43.71
22917;DHT22;11624;53.250;7.456;2022-08-14T01:33:35;28.00;43.81
22917;DHT22;11624;53.250;7.456;2022-08-14T01:36:28;27.97;43.82
22917;DHT22;11624;53.250;7.456;2022-08-14T01:39:09;27.93;44.05
22917;DHT22;11624;53.250;7.456;2022-08-14T01:41:40;27.89;44.07
22917;DHT22;11624;53.250;7.456;2022-08-14T01:44:12;27.85;44.03
22917;DHT22;11624;53.250;7.456;2022-08-14T01:47:04;27.81;44.09
22917;DHT22;11624;53.250;7.456;2022-08-14T01:49:48;27.79;44.12
22917;DHT22;11624;53.250;7.456;2022-08-14T01:52:30;27.75;44.10
22917;DHT22;11624;53.250;7.456;2022-08-14T01:55:21;27.71;44.34
22917;DHT22;11624;53.250;7.456;2022-08-14T01:57:50;27.69;44.38
22917;DHT22;11624;53.250;7.456;2022-08-14T02:00:38;27.64;44.67
22917;DHT22;11624;53.250;7.456;2022-08-14T02:03:07;27.64;44.77
22917;DHT22;11624;53.250;7.456;2022-08-14T02:05:35;27.70;44.47
22917;DHT22;11624;53.250;7.456;2022-08-14T02:08:05;27.74;44.45
22917;DHT22;11624;53.250;7.456;2022-08-14T02:10:39;27.74;44.38
22917;DHT22;11624;53.250;7.456;2022-08-14T02:13:14;27.74;44.37
22917;DHT22;11624;53.250;7.456;2022-08-14T02:15:45;27.73;44.45
22917;DHT22;11624;53.250;7.456;2022-08-14T02:18:14;27.74;44.63
22917;DHT22;11624;53.250;7.456;2022-08-14T02:20:45;27.74;44.61
22917;DHT22;11624;53.250;7.456;2022-08-14T02:23:17;27.73;44.59
22917;DHT22;11624;53.250;7.456;2022-08-14T02:26:01;27.71;44.71
22917;DHT22;11624;53.250;7.456;2022-08-14T02:28:53;27.70;44.72
22917;DHT22;11624;53.250;7.456;2022-08-14T02:31:26;27.70;44.74
22917;DHT22;11624;53.250;7.456;2022-08-14T02:34:12;27.66;44.77
22917;DHT22;11624;53.250;7.456;2022-08-14T02:36:54;27.60;44.61
22917;DHT22;11624;53.250;7.456;2022-08-14T02:39:32;27.57;44.90
22917;DHT22;11624;53.250;7.456;2022-08-14T02:42:06;27.52;44.77
22917;DHT22;11624;53.250;7.456;2022-08-14T02:44:40;27.50;44.96
22917;DHT22;11624;53.250;7.456;2022-08-14T02:47:16;27.43;44.93
22917;DHT22;11624;53.250;7.456;2022-08-14T02:49:48;27.37;45.16
22917;DHT22;11624;53.250;7.456;2022-08-14T02:52:23;27.38;45.12
22917;DHT22;11624;53.250;7.456;2022-08-14T02:55:12;27.34;45.11
22917;DHT22;11624;53.250;7.456;2022-08-14T02:57:49;27.29;45.29
22917;DHT22;11624;53.250;7.456;2022-08-14T03:00:31;27.23;45.26
22917;DHT22;11624;53.250;7.456;2022-08-14T03:03:06;27.21;45.38
22917;DHT22;11624;53.250;7.456;2022-08-14T03:05:35;27.20;45.35
22917;DHT22;11624;53.250;7.456;2022-08-14T03:08:09;27.14;45.45
22917;DHT22;11624;53.250;7.456;2022-08-14T03:10:43;27.10;45.51
22917;DHT22;11624;53.250;7.456;2022-08-14T03:13:18;27.09;45.51
22917;DHT22;11624;53.250;7.456;2022-08-14T03:15:48;27.04;45.60
22917;DHT22;11624;53.250;7.456;2022-08-14T03:18:23;26.99;45.73
22917;DHT22;11624;53.250;7.456;2022-08-14T03:20:59;26.94;45.84
22917;DHT22;11624;53.250;7.456;2022-08-14T03:23:28;26.89;45.88
22917;DHT22;11624;53.250;7.456;2022-08-14T03:26:02;26.86;46.02
22917;DHT22;11624;53.250;7.456;2022-08-14T03:28:35;26.84;46.10
22917;DHT22;11624;53.250;7.456;2022-08-14T03:31:05;26.81;46.22
22917;DHT22;11624;53.250;7.456;2022-08-14T03:33:39;26.77;46.46
22917;DHT22;11624;53.250;7.456;2022-08-14T03:36:11;26.76;46.52
22917;DHT22;11624;53.250;7.456;2022-08-14T03:39:03;26.69;46.64
22917;DHT22;11624;53.250;7.456;2022-08-14T03:41:44;26.63;46.82
22917;DHT22;11624;53.250;7.456;2022-08-14T03:44:15;26.64;46.62
22917;DHT22;11624;53.250;7.456;2022-08-14T03:47:04;26.60;46.80
22917;DHT22;11624;53.250;7.456;2022-08-14T03:49:34;26.57;46.90
22917;DHT22;11624;53.250;7.456;2022-08-14T03:52:09;26.55;46.84
22917;DHT22;11624;53.250;7.456;2022-08-14T03:54:57;26.54;46.86
22917;DHT22;11624;53.250;7.456;2022-08-14T03:57:26;26.52;46.99
22917;DHT22;11624;53.250;7.456;2022-08-14T04:00:07;26.50;46.94
22917;DHT22;11624;53.250;7.456;2022-08-14T04:02:59;26.46;47.12
22917;DHT22;11624;53.250;7.456;2022-08-14T04:05:28;26.48;47.38
22917;DHT22;11624;53.250;7.456;2022-08-14T04:08:08;26.47;47.28
22917;DHT22;11624;53.250;7.456;2022-08-14T04:10:57;26.43;47.39
22917;DHT22;11624;53.250;7.456;2022-08-14T04:13:28;26.42;47.44
22917;DHT22;11624;53.250;7.456;2022-08-14T04:16:01;26.40;47.43
22917;DHT22;11624;53.250;7.456;2022-08-14T04:18:37;26.39;47.63
22917;DHT22;11624;53.250;7.456;2022-08-14T04:21:18;26.37;47.53
22917;DHT22;11624;53.250;7.456;2022-08-14T04:24:19;26.36;47.62
22917;DHT22;11624;53.250;7.456;2022-08-14T04:29:51;26.32;47.69
22917;DHT22;11624;53.250;7.456;2022-08-14T04:32:27;26.32;47.73
22917;DHT22;11624;53.250;7.456;2022-08-14T04:35:58;26.30;47.85
22917;DHT22;11624;53.250;7.456;2022-08-14T04:39:04;26.26;47.62
22917;DHT22;11624;53.250;7.456;2022-08-14T04:42:05;26.27;47.82
22917;DHT22;11624;53.250;7.456;2022-08-14T04:45:27;26.25;47.70
22917;DHT22;11624;53.250;7.456;2022-08-14T04:48:28;26.27;47.88
22917;DHT22;11624;53.250;7.456;2022-08-14T04:51:14;26.31;48.05
22917;DHT22;11624;53.250;7.456;2022-08-14T04:53:46;26.33;48.18
22917;DHT22;11624;53.250;7.456;2022-08-14T04:56:25;26.35;48.24
22917;DHT22;11624;53.250;7.456;2022-08-14T04:59:04;26.38;48.13
22917;DHT22;11624;53.250;7.456;2022-08-14T05:01:38;26.41;48.20
22917;DHT22;11624;53.250;7.456;2022-08-14T05:04:16;26.45;48.26
22917;DHT22;11624;53.250;7.456;2022-08-14T05:06:47;26.51;48.19
22917;DHT22;11624;53.250;7.456;2022-08-14T05:09:23;26.53;48.12
22917;DHT22;11624;53.250;7.456;2022-08-14T05:12:03;26.57;48.28
22917;DHT22;11624;53.250;7.456;2022-08-14T05:14:52;26.61;48.24
22917;DHT22;11624;53.250;7.456;2022-08-14T05:17:30;26.69;48.08
22917;DHT22;11624;53.250;7.456;2022-08-14T05:21:00;26.75;48.14
22917;DHT22;11624;53.250;7.456;2022-08-14T05:24:14;26.83;47.96
22917;DHT22;11624;53.250;7.456;2022-08-14T05:26:54;26.93;47.65
22917;DHT22;11624;53.250;7.456;2022-08-14T05:29:24;26.99;47.57
22917;DHT22;11624;53.250;7.456;2022-08-14T05:31:54;27.05;47.55
22917;DHT22;11624;53.250;7.456;2022-08-14T05:34:24;27.14;47.63
22917;DHT22;11624;53.250;7.456;2022-08-14T05:37:00;27.23;47.16
22917;DHT22;11624;53.250;7.456;2022-08-14T05:39:32;27.27;47.13
22917;DHT22;11624;53.250;7.456;2022-08-14T05:42:01;27.37;47.16
22917;DHT22;11624;53.250;7.456;2022-08-14T05:44:47;27.44;47.02
22917;DHT22;11624;53.250;7.456;2022-08-14T05:47:19;27.52;46.71
22917;DHT22;11624;53.250;7.456;2022-08-14T05:49:48;27.56;46.74
22917;DHT22;11624;53.250;7.456;2022-08-14T05:52:19;27.63;46.74
22917;DHT22;11624;53.250;7.456;2022-08-14T05:55:06;27.67;46.52
22917;DHT22;11624;53.250;7.456;2022-08-14T05:57:45;27.72;46.34
22917;DHT22;11624;53.250;7.456;2022-08-14T06:00:15;27.80;46.07
22917;DHT22;11624;53.250;7.456;2022-08-14T06:02:55;27.85;46.26
22917;DHT22;11624;53.250;7.456;2022-08-14T06:05:23;27.95;45.98
22917;DHT22;11624;53.250;7.456;2022-08-14T06:07:57;27.98;45.86
22917;DHT22;11624;53.250;7.456;2022-08-14T06:10:26;27.96;46.11
22917;DHT22;11624;53.250;7.456;2022-08-14T06:12:56;28.02;45.84
22917;DHT22;11624;53.250;7.456;2022-08-14T06:15:24;27.98;46.02
22917;DHT22;11624;53.250;7.456;2022-08-14T06:17:57;28.00;46.19
22917;DHT22;11624;53.250;7.456;2022-08-14T06:20:28;28.10;46.14
22917;DHT22;11624;53.250;7.456;2022-08-14T06:22:57;28.21;46.22
22917;DHT22;11624;53.250;7.456;2022-08-14T06:25:26;28.31;45.84
22917;DHT22;11624;53.250;7.456;2022-08-14T06:27:55;28.39;44.92
22917;DHT22;11624;53.250;7.456;2022-08-14T06:30:28;28.40;45.06
22917;DHT22;11624;53.250;7.456;2022-08-14T06:33:12;28.45;45.42
22917;DHT22;11624;53.250;7.456;2022-08-14T06:35:41;28.55;45.25
22917;DHT22;11624;53.250;7.456;2022-08-14T06:38:16;28.61;44.72
22917;DHT22;11624;53.250;7.456;2022-08-14T06:40:45;28.70;44.87
22917;DHT22;11624;53.250;7.456;2022-08-14T06:43:14;28.77;44.60
22917;DHT22;11624;53.250;7.456;2022-08-14T06:45:46;28.87;44.48
22917;DHT22;11624;53.250;7.456;2022-08-14T06:48:22;28.97;44.39
22917;DHT22;11624;53.250;7.456;2022-08-14T06:50:54;29.05;44.48
22917;DHT22;11624;53.250;7.456;2022-08-14T06:53:25;29.19;43.87
22917;DHT22;11624;53.250;7.456;2022-08-14T06:55:54;29.20;43.35
22917;DHT22;11624;53.250;7.456;2022-08-14T06:58:28;29.16;44.02
22917;DHT22;11624;53.250;7.456;2022-08-14T07:00:59;29.26;44.32
22917;DHT22;11624;53.250;7.456;2022-08-14T07:03:54;29.43;44.61
22917;DHT22;11624;53.250;7.456;2022-08-14T07:06:51;29.53;43.69
22917;DHT22;11624;53.250;7.456;2022-08-14T07:09:27;29.64;43.87
22917;DHT22;11624;53.250;7.456;2022-08-14T07:12:15;29.83;43.74
22917;DHT22;11624;53.250;7.456;2022-08-14T07:15:05;30.03;43.02
22917;DHT22;11624;53.250;7.456;2022-08-14T07:17:43;30.16;42.57
22917;DHT22;11624;53.250;7.456;2022-08-14T07:20:17;30.25;42.71
22917;DHT22;11624;53.250;7.456;2022-08-14T07:22:57;30.46;42.87
22917;DHT22;11624;53.250;7.456;2022-08-14T07:25:36;30.79;41.89
22917;DHT22;11624;53.250;7.456;2022-08-14T07:28:09;31.21;41.33
22917;DHT22;11624;53.250;7.456;2022-08-14T07:30:39;31.74;40.48
22917;DHT22;11624;53.250;7.456;2022-08-14T07:33:19;32.25;39.58
22917;DHT22;11624;53.250;7.456;2022-08-14T07:35:57;32.67;38.41
22917;DHT22;11624;53.250;7.456;2022-08-14T07:38:27;32.78;37.84
22917;DHT22;11624;53.250;7.456;2022-08-14T07:41:04;32.87;36.88
22917;DHT22;11624;53.250;7.456;2022-08-14T07:43:43;32.88;36.60
22917;DHT22;11624;53.250;7.456;2022-08-14T07:46:22;32.75;36.71
22917;DHT22;11624;53.250;7.456;2022-08-14T07:48:55;32.81;37.81
22917;DHT22;11624;53.250;7.456;2022-08-14T07:51:26;33.18;36.22
22917;DHT22;11624;53.250;7.456;2022-08-14T07:54:05;33.17;36.92
22917;DHT22;11624;53.250;7.456;2022-08-14T07:56:40;33.19;36.25
22917;DHT22;11624;53.250;7.456;2022-08-14T07:59:15;33.30;35.82
22917;DHT22;11624;53.250;7.456;2022-08-14T08:02:08;33.49;35.11
22917;DHT22;11624;53.250;7.456;2022-08-14T08:04:49;33.47;35.05
22917;DHT22;11624;53.250;7.456;2022-08-14T08:07:26;33.41;34.47
22917;DHT22;11624;53.250;7.456;2022-08-14T08:09:58;33.28;36.08
22917;DHT22;11624;53.250;7.456;2022-08-14T08:13:17;33.62;35.73
22917;DHT22;11624;53.250;7.456;2022-08-14T08:15:53;33.79;34.65
22917;DHT22;11624;53.250;7.456;2022-08-14T08:18:24;33.81;34.23
22917;DHT22;11624;53.250;7.456;2022-08-14T08:20:56;33.89;35.03
22917;DHT22;11624;53.250;7.456;2022-08-14T08:23:28;34.17;34.79
22917;DHT22;11624;53.250;7.456;2022-08-14T08:26:09;34.39;34.09
22917;DHT22;11624;53.250;7.456;2022-08-14T08:28:39;34.23;34.17
22917;DHT22;11624;53.250;7.456;2022-08-14T08:31:10;34.20;34.71
22917;DHT22;11624;53.250;7.456;2022-08-14T08:33:40;34.33;33.42
22917;DHT22;11624;53.250;7.456;2022-08-14T08:36:15;34.36;34.57
22917;DHT22;11624;53.250;7.456;2022-08-14T08:38:46;34.62;34.18
22917;DHT22;11624;53.250;7.456;2022-08-14T08:41:42;34.60;33.51
22917;DHT22;11624;53.250;7.456;2022-08-14T08:44:17;34.62;32.83
22917;DHT22;11624;53.250;7.456;2022-08-14T08:47:00;34.59;33.22
22917;DHT22;11624;53.250;7.456;2022-08-14T08:49:38;34.64;32.54
22917;DHT22;11624;53.250;7.456;2022-08-14T08:52:25;34.46;32.58
22917;DHT22;11624;53.250;7.456;2022-08-14T08:54:57;34.00;33.93
22917;DHT22;11624;53.250;7.456;2022-08-14T08:57:33;34.14;35.31
22917;DHT22;11624;53.250;7.456;2022-08-14T09:00:14;34.49;33.70
22917;DHT22;11624;53.250;7.456;2022-08-14T09:02:53;34.74;32.54
22917;DHT22;11624;53.250;7.456;2022-08-14T09:05:24;34.68;31.65
22917;DHT22;11624;53.250;7.456;2022-08-14T09:08:08;34.53;33.49
22917;DHT22;11624;53.250;7.456;2022-08-14T09:10:56;34.91;33.40
22917;DHT22;11624;53.250;7.456;2022-08-14T09:13:26;35.16;32.48
22917;DHT22;11624;53.250;7.456;2022-08-14T09:16:01;35.20;31.98
22917;DHT22;11624;53.250;7.456;2022-08-14T09:18:45;35.33;32.15
22917;DHT22;11624;53.250;7.456;2022-08-14T09:21:14;35.52;31.38
22917;DHT22;11624;53.250;7.456;2022-08-14T09:23:44;35.59;31.04
22917;DHT22;11624;53.250;7.456;2022-08-14T09:26:33;35.66;30.76
22917;DHT22;11624;53.250;7.456;2022-08-14T09:29:05;35.64;31.29
22917;DHT22;11624;53.250;7.456;2022-08-14T09:31:45;35.74;31.12
22917;DHT22;11624;53.250;7.456;2022-08-14T09:34:25;36.04;30.94
22917;DHT22;11624;53.250;7.456;2022-08-14T09:37:29;36.02;30.42
22917;DHT22;11624;53.250;7.456;2022-08-14T09:40:05;36.04;31.26
22917;DHT22;11624;53.250;7.456;2022-08-14T09:42:54;36.44;30.64
22917;DHT22;11624;53.250;7.456;2022-08-14T09:45:30;36.83;30.62
22917;DHT22;11624;53.250;7.456;2022-08-14T09:48:21;37.22;29.26
22917;DHT22;11624;53.250;7.456;2022-08-14T09:50:58;37.51;28.12
22917;DHT22;11624;53.250;7.456;2022-08-14T09:53:36;37.49;27.55
22917;DHT22;11624;53.250;7.456;2022-08-14T09:56:27;37.13;28.07
22917;DHT22;11624;53.250;7.456;2022-08-14T09:59:08;37.21;28.71
22917;DHT22;11624;53.250;7.456;2022-08-14T10:01:42;37.57;28.36
22917;DHT22;11624;53.250;7.456;2022-08-14T10:04:20;37.78;27.92
22917;DHT22;11624;53.250;7.456;2022-08-14T10:07:03;37.86;26.75
22917;DHT22;11624;53.250;7.456;2022-08-14T10:09:45;37.55;27.54
22917;DHT22;11624;53.250;7.456;2022-08-14T10:12:44;37.55;28.00
22917;DHT22;11624;53.250;7.456;2022-08-14T10:15:17;37.75;27.76
22917;DHT22;11624;53.250;7.456;2022-08-14T10:17:46;37.96;28.14
22917;DHT22;11624;53.250;7.456;2022-08-14T10:20:31;38.25;26.66
22917;DHT22;11624;53.250;7.456;2022-08-14T10:23:11;38.24;26.44
22917;DHT22;11624;53.250;7.456;2022-08-14T10:25:46;38.39;27.13
22917;DHT22;11624;53.250;7.456;2022-08-14T10:28:20;38.77;26.21
22917;DHT22;11624;53.250;7.456;2022-08-14T10:31:19;38.79;24.33
22917;DHT22;11624;53.250;7.456;2022-08-14T10:34:00;38.79;25.97
22917;DHT22;11624;53.250;7.456;2022-08-14T10:36:32;39.19;25.63
22917;DHT22;11624;53.250;7.456;2022-08-14T10:39:14;39.78;24.44
22917;DHT22;11624;53.250;7.456;2022-08-14T10:41:44;39.98;24.27
22917;DHT22;11624;53.250;7.456;2022-08-14T10:44:22;39.88;22.76
22917;DHT22;11624;53.250;7.456;2022-08-14T10:46:55;39.23;23.46
22917;DHT22;11624;53.250;7.456;2022-08-14T10:49:59;38.77;24.11
22917;DHT22;11624;53.250;7.456;2022-08-14T10:52:32;38.61;24.69
22917;DHT22;11624;53.250;7.456;2022-08-14T10:55:06;38.93;24.85
22917;DHT22;11624;53.250;7.456;2022-08-14T10:57:49;39.36;23.58
22917;DHT22;11624;53.250;7.456;2022-08-14T11:00:20;39.62;22.59
22917;DHT22;11624;53.250;7.456;2022-08-14T11:03:03;39.35;23.09
22917;DHT22;11624;53.250;7.456;2022-08-14T11:05:42;39.48;24.04
22917;DHT22;11624;53.250;7.456;2022-08-14T11:08:14;39.54;23.28
22917;DHT22;11624;53.250;7.456;2022-08-14T11:10:46;39.77;22.53
22917;DHT22;11624;53.250;7.456;2022-08-14T11:13:20;40.00;22.58
22917;DHT22;11624;53.250;7.456;2022-08-14T11:15:50;40.40;23.27
22917;DHT22;11624;53.250;7.456;2022-08-14T11:18:19;40.80;22.05
22917;DHT22;11624;53.250;7.456;2022-08-14T11:21:03;40.77;20.80
22917;DHT22;11624;53.250;7.456;2022-08-14T11:23:37;40.65;21.36
22917;DHT22;11624;53.250;7.456;2022-08-14T11:26:14;40.97;21.17
22917;DHT22;11624;53.250;7.456;2022-08-14T11:28:52;41.28;19.54
22917;DHT22;11624;53.250;7.456;2022-08-14T11:31:30;41.06;21.06
22917;DHT22;11624;53.250;7.456;2022-08-14T11:34:05;41.42;20.58
22917;DHT22;11624;53.250;7.456;2022-08-14T11:36:53;41.93;18.50
22917;DHT22;11624;53.250;7.456;2022-08-14T11:39:43;41.69;20.09
22917;DHT22;11624;53.250;7.456;2022-08-14T11:42:32;41.62;19.25
22917;DHT22;11624;53.250;7.456;2022-08-14T11:45:24;41.33;19.50
22917;DHT22;11624;53.250;7.456;2022-08-14T11:47:57;41.16;20.73
22917;DHT22;11624;53.250;7.456;2022-08-14T11:50:49;41.26;20.66
22917;DHT22;11624;53.250;7.456;2022-08-14T11:53:23;41.11;20.29
22917;DHT22;11624;53.250;7.456;2022-08-14T11:56:02;41.24;21.02
22917;DHT22;11624;53.250;7.456;2022-08-14T11:58:34;41.31;20.83
22917;DHT22;11624;53.250;7.456;2022-08-14T12:01:06;41.22;20.81
22917;DHT22;11624;53.250;7.456;2022-08-14T12:03:36;41.21;20.08
22917;DHT22;11624;53.250;7.456;2022-08-14T12:06:19;40.96;19.57
22917;DHT22;11624;53.250;7.456;2022-08-14T12:09:05;40.70;20.12
22917;DHT22;11624;53.250;7.456;2022-08-14T12:11:44;40.46;20.27
22917;DHT22;11624;53.250;7.456;2022-08-14T12:14:18;40.36;21.98
22917;DHT22;11624;53.250;7.456;2022-08-14T12:17:03;40.62;20.79
22917;DHT22;11624;53.250;7.456;2022-08-14T12:19:44;40.87;21.01
22917;DHT22;11624;53.250;7.456;2022-08-14T12:22:46;41.20;20.89
22917;DHT22;11624;53.250;7.456;2022-08-14T12:25:29;41.42;20.79
22917;DHT22;11624;53.250;7.456;2022-08-14T12:28:11;41.70;20.37
22917;DHT22;11624;53.250;7.456;2022-08-14T12:31:00;41.95;19.92
22917;DHT22;11624;53.250;7.456;2022-08-14T12:33:38;42.15;19.61
22917;DHT22;11624;53.250;7.456;2022-08-14T12:36:19;42.45;19.73
22917;DHT22;11624;53.250;7.456;2022-08-14T12:38:49;42.49;19.76
22917;DHT22;11624;53.250;7.456;2022-08-14T12:41:21;42.55;19.29
22917;DHT22;11624;53.250;7.456;2022-08-14T12:44:05;42.46;19.38
22917;DHT22;11624;53.250;7.456;2022-08-14T12:46:41;42.60;18.50
22917;DHT22;11624;53.250;7.456;2022-08-14T12:49:14;42.51;18.77
22917;DHT22;11624;53.250;7.456;2022-08-14T12:51:55;42.46;19.44
22917;DHT22;11624;53.250;7.456;2022-08-14T12:54:24;42.45;18.72
22917;DHT22;11624;53.250;7.456;2022-08-14T12:57:06;41.83;19.66
22917;DHT22;11624;53.250;7.456;2022-08-14T12:59:44;41.47;19.33
22917;DHT22;11624;53.250;7.456;2022-08-14T13:02:21;41.06;20.10
22917;DHT22;11624;53.250;7.456;2022-08-14T13:04:53;40.85;20.05
22917;DHT22;11624;53.250;7.456;2022-08-14T13:07:25;40.74;20.11
22917;DHT22;11624;53.250;7.456;2022-08-14T13:09:59;40.47;20.76
22917;DHT22;11624;53.250;7.456;2022-08-14T13:12:48;40.59;20.57
22917;DHT22;11624;53.250;7.456;2022-08-14T13:15:39;40.58;21.24
22917;DHT22;11624;53.250;7.456;2022-08-14T13:18:14;40.67;21.31
22917;DHT22;11624;53.250;7.456;2022-08-14T13:20:43;40.81;21.15
22917;DHT22;11624;53.250;7.456;2022-08-14T13:23:25;41.10;21.39
22917;DHT22;11624;53.250;7.456;2022-08-14T13:25:58;41.10;20.94
22917;DHT22;11624;53.250;7.456;2022-08-14T13:28:30;41.07;20.97
22917;DHT22;11624;53.250;7.456;2022-08-14T13:31:22;40.73;20.97
22917;DHT22;11624;53.250;7.456;2022-08-14T13:33:59;40.60;20.86
22917;DHT22;11624;53.250;7.456;2022-08-14T13:36:31;40.57;21.91
22917;DHT22;11624;53.250;7.456;2022-08-14T13:39:22;40.62;21.50
22917;DHT22;11624;53.250;7.456;2022-08-14T13:41:51;40.86;21.09
22917;DHT22;11624;53.250;7.456;2022-08-14T13:44:25;40.98;21.31
22917;DHT22;11624;53.250;7.456;2022-08-14T13:46:57;41.26;20.61
22917;DHT22;11624;53.250;7.456;2022-08-14T13:49:25;41.60;20.50
22917;DHT22;11624;53.250;7.456;2022-08-14T13:51:57;41.64;20.63
22917;DHT22;11624;53.250;7.456;2022-08-14T13:54:42;41.45;19.66
22917;DHT22;11624;53.250;7.456;2022-08-14T13:57:22;41.00;20.05
22917;DHT22;11624;53.250;7.456;2022-08-14T14:00:00;40.55;20.44
22917;DHT22;11624;53.250;7.456;2022-08-14T14:02:40;40.46;21.82
22917;DHT22;11624;53.250;7.456;2022-08-14T14:05:13;40.74;21.55
22917;DHT22;11624;53.250;7.456;2022-08-14T14:07:49;40.87;20.71
22917;DHT22;11624;53.250;7.456;2022-08-14T14:10:21;40.80;20.99
22917;DHT22;11624;53.250;7.456;2022-08-14T14:12:55;40.67;20.77
22917;DHT22;11624;53.250;7.456;2022-08-14T14:15:25;40.31;20.76
22917;DHT22;11624;53.250;7.456;2022-08-14T14:18:01;39.69;20.98
22917;DHT22;11624;53.250;7.456;2022-08-14T14:20:42;39.33;21.95
22917;DHT22;11624;53.250;7.456;2022-08-14T14:23:12;39.07;22.44
22917;DHT22;11624;53.250;7.456;2022-08-14T14:25:45;38.69;23.25
22917;DHT22;11624;53.250;7.456;2022-08-14T14:28:30;38.67;23.73
22917;DHT22;11624;53.250;7.456;2022-08-14T14:31:04;38.94;23.48
22917;DHT22;11624;53.250;7.456;2022-08-14T14:33:42;39.21;23.38
22917;DHT22;11624;53.250;7.456;2022-08-14T14:36:17;39.43;22.72
22917;DHT22;11624;53.250;7.456;2022-08-14T14:38:50;39.48;22.47
22917;DHT22;11624;53.250;7.456;2022-08-14T14:41:20;39.54;22.18
22917;DHT22;11624;53.250;7.456;2022-08-14T14:43:51;39.66;22.54
22917;DHT22;11624;53.250;7.456;2022-08-14T14:46:21;39.83;22.33
22917;DHT22;11624;53.250;7.456;2022-08-14T14:49:06;39.98;21.73
22917;DHT22;11624;53.250;7.456;2022-08-14T14:51:42;39.78;21.36
22917;DHT22;11624;53.250;7.456;2022-08-14T14:54:19;39.28;21.66
22917;DHT22;11624;53.250;7.456;2022-08-14T14:56:58;39.19;22.79
22917;DHT22;11624;53.250;7.456;2022-08-14T14:59:28;39.19;22.45
22917;DHT22;11624;53.250;7.456;2022-08-14T15:02:03;39.24;22.34
22917;DHT22;11624;53.250;7.456;2022-08-14T15:04:37;39.33;22.78
22917;DHT22;11624;53.250;7.456;2022-08-14T15:07:09;39.52;21.96
22917;DHT22;11624;53.250;7.456;2022-08-14T15:09:39;39.63;21.97
22917;DHT22;11624;53.250;7.456;2022-08-14T15:12:07;39.62;21.05
22917;DHT22;11624;53.250;7.456;2022-08-14T15:14:56;39.34;22.18
22917;DHT22;11624;53.250;7.456;2022-08-14T15:17:35;39.39;23.17
22917;DHT22;11624;53.250;7.456;2022-08-14T15:20:12;39.65;22.79
22917;DHT22;11624;53.250;7.456;2022-08-14T15:22:55;39.85;22.14
22917;DHT22;11624;53.250;7.456;2022-08-14T15:25:24;39.99;21.03
22917;DHT22;11624;53.250;7.456;2022-08-14T15:27:57;40.01;21.66
22917;DHT22;11624;53.250;7.456;2022-08-14T15:30:27;40.10;21.32
22917;DHT22;11624;53.250;7.456;2022-08-14T15:32:58;40.14;20.20
22917;DHT22;11624;53.250;7.456;2022-08-14T15:35:31;39.72;20.78
22917;DHT22;11624;53.250;7.456;2022-08-14T15:38:04;39.45;21.36
22917;DHT22;11624;53.250;7.456;2022-08-14T15:40:35;39.15;22.10
22917;DHT22;11624;53.250;7.456;2022-08-14T15:43:09;38.99;21.75
22917;DHT22;11624;53.250;7.456;2022-08-14T15:45:39;38.81;22.53
22917;DHT22;11624;53.250;7.456;2022-08-14T15:48:09;38.77;23.10
22917;DHT22;11624;53.250;7.456;2022-08-14T15:50:50;38.92;22.63
22917;DHT22;11624;53.250;7.456;2022-08-14T15:53:19;39.04;22.20
22917;DHT22;11624;53.250;7.456;2022-08-14T15:55:50;39.12;22.18
22917;DHT22;11624;53.250;7.456;2022-08-14T15:58:21;39.25;22.20
22917;DHT22;11624;53.250;7.456;2022-08-14T16:00:52;39.19;21.79
22917;DHT22;11624;53.250;7.456;2022-08-14T16:03:39;39.11;22.27
22917;DHT22;11624;53.250;7.456;2022-08-14T16:06:13;39.19;21.81
22917;DHT22;11624;53.250;7.456;2022-08-14T16:08:46;39.27;21.59
22917;DHT22;11624;53.250;7.456;2022-08-14T16:11:24;39.21;21.11
22917;DHT22;11624;53.250;7.456;2022-08-14T16:13:59;38.97;21.47
22917;DHT22;11624;53.250;7.456;2022-08-14T16:16:27;38.89;22.02
22917;DHT22;11624;53.250;7.456;2022-08-14T16:19:18;38.92;21.77
22917;DHT22;11624;53.250;7.456;2022-08-14T16:21:50;39.00;21.66
22917;DHT22;11624;53.250;7.456;2022-08-14T16:24:42;39.03;21.46
22917;DHT22;11624;53.250;7.456;2022-08-14T16:27:30;38.96;21.77
22917;DHT22;11624;53.250;7.456;2022-08-14T16:30:09;38.97;22.14
22917;DHT22;11624;53.250;7.456;2022-08-14T16:32:54;39.08;22.60
22917;DHT22;11624;53.250;7.456;2022-08-14T16:35:25;39.11;21.84
22917;DHT22;11624;53.250;7.456;2022-08-14T16:38:16;39.05;22.33
22917;DHT22;11624;53.250;7.456;2022-08-14T16:41:05;38.84;22.82